Time;durP1;ratioP1;P1;durP2;ratioP2;P2;SDS_P1;SDS_P2;PMS_P1;PMS_P2;Temp;Humidity;BMP_temperature;BMP_pressure;BME280_temperature;BME280_humidity;BME280_pressure;Samples;Min_cycle;Max_cycle;Signal;HPM_P1;HPM_P2
2024/05/05 09:33:10;;;;;;;1.23;1.13;;;;;;;-145.37;100.00;61290.75;6445671;22;20009;-86
2024/05/05 09:35:37;;;;;;;4.13;1.70;;;;;;;-145.37;100.00;61290.75;6467972;22;20009;-84
2024/05/05 09:38:04;;;;;;;2.85;1.42;;;;;;;-145.37;100.00;61290.75;6463666;22;20960;-84
2024/05/05 09:40:32;;;;;;;2.00;1.30;;;;;;;-145.37;100.00;61290.75;6464538;22;20428;-88
2024/05/05 09:42:59;;;;;;;1.90;1.40;;;;;;;-145.37;100.00;61290.75;6467294;22;20001;-95
2024/05/05 09:45:26;;;;;;;1.85;1.30;;;;;;;-145.37;100.00;61290.75;6472142;22;20017;-93
2024/05/05 09:47:53;;;;;;;1.85;1.42;;;;;;;-145.37;100.00;61290.75;6470209;22;20013;-88
2024/05/05 09:50:24;;;;;;;1.65;1.20;;;;;;;-145.37;100.00;61290.75;6468226;22;20455;-85
2024/05/05 09:53:04;;;;;;;1.15;1.00;;;;;;;-145.37;100.00;61290.75;6424232;22;20089;-88
2024/05/05 09:55:37;;;;;;;2.13;0.95;;;;;;;-145.37;100.00;61290.75;6424803;22;20072;-84
2024/05/05 09:58:10;;;;;;;2.58;0.80;;;;;;;-145.37;100.00;61290.75;6467423;22;19990;-90
2024/05/05 10:00:37;;;;;;;1.10;1.00;;;;;;;-145.37;100.00;61290.75;6468979;22;20005;-83
2024/05/05 10:03:04;;;;;;;0.73;0.73;;;;;;;-145.37;100.00;61290.75;6467467;22;20404;-84
2024/05/05 10:05:32;;;;;;;0.88;0.80;;;;;;;-145.37;100.00;61290.75;6469594;22;20005;-84
2024/05/05 10:07:59;;;;;;;0.77;0.70;;;;;;;-145.37;100.00;61290.75;6469552;22;20723;-81
2024/05/05 10:10:26;;;;;;;0.82;0.82;;;;;;;-145.37;100.00;61290.75;6466556;22;20005;-85
2024/05/05 10:12:57;;;;;;;2.05;0.65;;;;;;;-145.37;100.00;61290.75;6469119;22;20005;-87
2024/05/05 10:15:28;;;;;;;0.85;0.82;;;;;;;-145.37;100.00;61290.75;6423463;22;19994;-86
2024/05/05 10:18:09;;;;;;;2.53;1.38;;;;;;;-145.37;100.00;61290.75;6467773;22;20005;-86
2024/05/05 10:20:47;;;;;;;1.17;1.10;;;;;;;-145.37;100.00;61290.75;6468063;22;20026;-87
2024/05/05 10:23:15;;;;;;;1.95;1.80;;;;;;;-145.37;100.00;61290.75;6467803;22;19994;-89
2024/05/05 10:25:46;;;;;;;1.90;1.20;;;;;;;-145.37;100.00;61290.75;6425460;22;20006;-82
2024/05/05 10:28:13;;;;;;;1.08;0.98;;;;;;;-145.37;100.00;61290.75;6423612;22;20010;-85
2024/05/05 10:30:40;;;;;;;1.50;1.40;;;;;;;-145.37;100.00;61290.75;6466907;22;20474;-87
2024/05/05 10:33:06;;;;;;;2.17;1.98;;;;;;;-145.37;100.00;61290.75;6469466;22;20029;-85
2024/05/05 10:35:33;;;;;;;2.03;1.83;;;;;;;-145.37;100.00;61290.75;6426166;22;20103;-84
2024/05/05 10:38:01;;;;;;;3.15;2.75;;;;;;;-145.37;100.00;61290.75;6467105;22;20005;-83
2024/05/05 10:40:28;;;;;;;3.90;2.78;;;;;;;-145.37;100.00;61290.75;6421978;22;20449;-83
2024/05/05 10:42:54;;;;;;;3.15;2.85;;;;;;;-145.37;100.00;61290.75;6466641;22;19994;-85
2024/05/05 10:45:21;;;;;;;3.10;2.80;;;;;;;-145.37;100.00;61290.75;6466153;22;20097;-83
2024/05/05 10:47:48;;;;;;;4.13;2.83;;;;;;;-145.37;100.00;61290.75;6422320;22;20062;-85
2024/05/05 10:50:15;;;;;;;2.90;2.28;;;;;;;-145.37;100.00;61290.75;6467025;22;20049;-84
2024/05/05 10:52:42;;;;;;;4.70;2.05;;;;;;;-145.37;100.00;61290.75;6468080;22;19994;-88
2024/05/05 10:55:09;;;;;;;2.00;1.80;;;;;;;-145.37;100.00;61290.75;6468026;22;19994;-85
2024/05/05 10:57:36;;;;;;;2.03;1.85;;;;;;;-145.37;100.00;61290.75;6421428;22;20000;-86
2024/05/05 11:00:04;;;;;;;1.98;1.77;;;;;;;-145.37;100.00;61290.75;6423463;22;20131;-86
2024/05/05 11:02:32;;;;;;;2.90;2.63;;;;;;;-145.37;100.00;61290.75;6467121;22;20076;-83
2024/05/05 11:05:00;;;;;;;3.47;2.78;;;;;;;-145.37;100.00;61290.75;6421000;22;20012;-80
2024/05/05 11:07:34;;;;;;;4.35;3.28;;;;;;;-145.37;100.00;61290.75;6422246;22;19997;-83
2024/05/05 11:10:10;;;;;;;5.13;3.70;;;;;;;-145.37;100.00;61290.75;6422806;22;20000;-81
2024/05/05 11:12:44;;;;;;;6.03;5.22;;;;;;;-145.37;100.00;61290.75;6468576;22;20064;-82
2024/05/05 11:15:28;;;;;;;8.20;6.00;;;;;;;-145.37;100.00;61290.75;6468062;22;19993;-83
2024/05/05 11:18:09;;;;;;;9.52;6.40;;;;;;;-145.37;100.00;61290.75;6463134;22;20069;-81
2024/05/05 11:20:41;;;;;;;10.07;8.43;;;;;;;-145.37;100.00;61290.75;6421206;22;20000;-82
2024/05/05 11:23:09;;;;;;;16.38;9.35;;;;;;;-145.37;100.00;61290.75;6465810;22;20010;-80
2024/05/05 11:25:36;;;;;;;8.95;7.82;;;;;;;-145.37;100.00;61290.75;6422956;22;19990;-81
2024/05/05 11:28:03;;;;;;;10.48;8.18;;;;;;;-145.37;100.00;61290.75;6465289;22;19990;-81
2024/05/05 11:30:45;;;;;;;7.78;6.30;;;;;;;-145.37;100.00;61290.75;6468586;22;20002;-84
2024/05/05 11:33:12;;;;;;;7.50;6.38;;;;;;;-145.37;100.00;61290.75;6435710;22;19993;-84
2024/05/05 11:35:41;;;;;;;8.50;6.60;;;;;;;-145.37;100.00;61290.75;6485673;22;19996;-86
2024/05/05 11:38:08;;;;;;;9.13;6.63;;;;;;;-145.37;100.00;61290.75;6471938;22;20386;-85
2024/05/05 11:40:36;;;;;;;7.68;6.88;;;;;;;-145.37;100.00;61290.75;6468237;22;20005;-81
2024/05/05 11:43:03;;;;;;;7.72;6.20;;;;;;;-145.37;100.00;61290.75;6422178;22;20089;-85
2024/05/05 11:45:30;;;;;;;8.05;6.50;;;;;;;-145.37;100.00;61290.75;6468153;22;20022;-84
2024/05/05 11:48:16;;;;;;;8.65;6.97;;;;;;;-145.37;100.00;61290.75;6469272;22;20005;-83
2024/05/05 11:51:41;;;;;;;7.07;6.15;;;;;;;-145.37;100.00;61290.75;6469309;22;20001;-84
2024/05/05 11:54:12;;;;;;;8.40;6.03;;;;;;;-145.37;100.00;61290.75;6467070;22;19990;-83
2024/05/05 11:56:46;;;;;;;7.35;6.07;;;;;;;-145.37;100.00;61290.75;6466836;22;20005;-83
2024/05/05 11:59:13;;;;;;;;;;;;;;;-145.37;100.00;61290.75;6468436;22;20062;-84
2024/05/05 12:01:39;;;;;;;8.13;6.32;;;;;;;-145.37;100.00;61290.75;6466232;22;19922;-83
2024/05/05 12:04:27;;;;;;;7.53;5.97;;;;;;;-145.37;100.00;61290.75;6422511;22;20005;-83
2024/05/05 12:07:11;;;;;;;10.60;7.90;;;;;;;-145.37;100.00;61290.75;6424441;22;20001;-84
2024/05/05 12:09:37;;;;;;;9.00;7.15;;;;;;;-145.37;100.00;61290.75;6422852;22;20005;-82
2024/05/05 12:12:05;;;;;;;8.65;6.45;;;;;;;-145.37;100.00;61290.75;6466811;22;19994;-83
2024/05/05 12:14:31;;;;;;;8.68;6.93;;;;;;;-145.37;100.00;61290.75;6466137;22;20024;-83
2024/05/05 12:16:58;;;;;;;9.35;7.13;;;;;;;-145.37;100.00;61290.75;6466958;22;20013;-82
2024/05/05 12:19:25;;;;;;;7.80;6.50;;;;;;;-145.37;100.00;61290.75;6466384;22;20417;-82
2024/05/05 12:21:52;;;;;;;6.65;5.63;;;;;;;-145.37;100.00;61290.75;6467440;22;20396;-83
2024/05/05 12:24:19;;;;;;;7.45;6.20;;;;;;;-145.37;100.00;61290.75;6467200;22;20004;-84
2024/05/05 12:26:50;;;;;;;7.22;5.78;;;;;;;-145.37;100.00;61290.75;6467124;22;20027;-83
2024/05/05 12:29:22;;;;;;;7.50;5.80;;;;;;;-145.37;100.00;61290.75;6421673;22;20428;-83
2024/05/05 12:32:01;;;;;;;7.03;5.72;;;;;;;-145.37;100.00;61290.75;6424403;22;19997;-83
2024/05/05 12:34:29;;;;;;;8.98;5.70;;;;;;;-145.37;100.00;61290.75;6466366;22;20123;-85
2024/05/05 12:37:02;;;;;;;7.82;5.45;;;;;;;-145.37;100.00;61290.75;6422496;22;19994;-82
2024/05/05 12:39:50;;;;;;;7.55;5.68;;;;;;;-145.37;100.00;61290.75;6465082;22;20014;-82
2024/05/05 12:42:17;;;;;;;4.90;4.38;;;;;;;-145.37;100.00;61290.75;6465343;22;20276;-82
2024/05/05 12:44:43;;;;;;;5.13;4.47;;;;;;;-145.37;100.00;61290.75;6465683;22;20045;-83
2024/05/05 12:47:11;;;;;;;4.75;4.25;;;;;;;-145.37;100.00;61290.75;6420646;22;19994;-82
2024/05/05 12:49:40;;;;;;;6.47;4.85;;;;;;;-145.37;100.00;61290.75;6465135;22;20281;-82
2024/05/05 12:52:07;;;;;;;8.43;4.68;;;;;;;-145.37;100.00;61290.75;6464953;22;19990;-83
2024/05/05 12:54:34;;;;;;;6.18;4.63;;;;;;;-145.37;100.00;61290.75;6466088;22;20087;-84
2024/05/05 12:57:02;;;;;;;3.90;3.28;;;;;;;-145.37;100.00;61290.75;6421385;22;20403;-83
2024/05/05 12:59:29;;;;;;;4.13;3.53;;;;;;;-145.37;100.00;61290.75;6465019;22;19993;-84
2024/05/05 13:01:56;;;;;;;4.18;3.65;;;;;;;-145.37;100.00;61290.75;6466480;22;20073;-84
2024/05/05 13:04:23;;;;;;;5.47;3.95;;;;;;;-145.37;100.00;61290.75;6465468;22;20028;-84
2024/05/05 13:06:50;;;;;;;4.63;3.70;;;;;;;-145.37;100.00;61290.75;6463975;22;20026;-82
2024/05/05 13:09:16;;;;;;;4.75;3.67;;;;;;;-145.37;100.00;61290.75;6465152;22;20305;-83
2024/05/05 13:11:44;;;;;;;6.93;4.43;;;;;;;-145.37;100.00;61290.75;6465414;22;19998;-83
2024/05/05 13:14:10;;;;;;;6.60;4.07;;;;;;;-145.37;100.00;61290.75;6421519;22;20017;-83
2024/05/05 13:16:37;;;;;;;4.78;3.40;;;;;;;-145.37;100.00;61290.75;6422310;22;20002;-83
2024/05/05 13:19:04;;;;;;;5.22;2.75;;;;;;;-145.37;100.00;61290.75;6464701;22;20012;-83
2024/05/05 13:21:30;;;;;;;4.63;3.22;;;;;;;-145.37;100.00;61290.75;6421963;22;19994;-83
2024/05/05 13:23:57;;;;;;;6.25;4.38;;;;;;;-145.37;100.00;61290.75;6421855;22;20000;-84
2024/05/05 13:26:24;;;;;;;6.40;3.97;;;;;;;-145.37;100.00;61290.75;6422124;22;20008;-82
2024/05/05 13:28:51;;;;;;;6.05;4.78;;;;;;;-145.37;100.00;61290.75;6466016;22;20045;-86
2024/05/05 13:31:18;;;;;;;5.05;4.07;;;;;;;-145.37;100.00;61290.75;6469309;22;20069;-85
2024/05/05 13:33:45;;;;;;;5.35;4.38;;;;;;;-145.37;100.00;61290.75;6423157;22;20211;-83
2024/05/05 13:36:11;;;;;;;6.75;5.72;;;;;;;-145.37;100.00;61290.75;6427776;22;19998;-84
2024/05/05 13:38:40;;;;;;;7.38;5.72;;;;;;;-145.37;100.00;61290.75;6467232;22;20408;-83
2024/05/05 13:41:06;;;;;;;6.75;5.80;;;;;;;-145.37;100.00;61290.75;6422408;22;19994;-82
2024/05/05 13:43:33;;;;;;;8.23;6.03;;;;;;;-145.37;100.00;61290.75;6466807;22;20010;-84
2024/05/05 13:46:01;;;;;;;8.35;6.45;;;;;;;-145.37;100.00;61290.75;6466942;22;19998;-84
2024/05/05 13:48:27;;;;;;;6.63;5.05;;;;;;;-145.37;100.00;61290.75;6468782;22;20006;-84
2024/05/05 13:50:54;;;;;;;5.88;4.90;;;;;;;-145.37;100.00;61290.75;6467180;22;20005;-85
2024/05/05 13:53:22;;;;;;;6.20;4.80;;;;;;;-145.37;100.00;61290.75;6468239;22;19997;-83
2024/05/05 13:55:49;;;;;;;6.38;5.53;;;;;;;-145.37;100.00;61290.75;6428067;22;20030;-89
2024/05/05 13:58:16;;;;;;;6.00;5.40;;;;;;;-145.37;100.00;61290.75;6429333;22;20416;-86
2024/05/05 14:00:42;;;;;;;5.63;4.93;;;;;;;-145.37;100.00;61290.75;6431180;22;19994;-83
2024/05/05 14:03:10;;;;;;;7.18;5.25;;;;;;;-145.37;100.00;61290.75;6468052;22;19994;-86
2024/05/05 14:05:37;;;;;;;5.88;5.05;;;;;;;-145.37;100.00;61290.75;6423880;22;19997;-82
2024/05/05 14:08:09;;;;;;;6.03;5.28;;;;;;;-145.37;100.00;61290.75;6467637;22;20063;-85
2024/05/05 14:10:36;;;;;;;7.00;5.82;;;;;;;-145.37;100.00;61290.75;6423897;22;20006;-83
2024/05/05 14:13:03;;;;;;;6.93;5.20;;;;;;;-145.37;100.00;61290.75;6421958;22;19994;-84
2024/05/05 14:15:31;;;;;;;7.03;6.15;;;;;;;-145.37;100.00;61290.75;6423561;22;20018;-86
2024/05/05 14:17:58;;;;;;;7.63;5.93;;;;;;;-145.37;100.00;61290.75;6465643;22;20069;-86
2024/05/05 14:20:24;;;;;;;8.20;5.15;;;;;;;-145.37;100.00;61290.75;6466586;22;20401;-86
2024/05/05 14:22:51;;;;;;;5.95;5.35;;;;;;;-145.37;100.00;61290.75;6423072;22;19998;-83
2024/05/05 14:25:18;;;;;;;7.60;4.93;;;;;;;-145.37;100.00;61290.75;6422866;22;19997;-83
2024/05/05 14:27:45;;;;;;;5.07;4.22;;;;;;;-145.37;100.00;61290.75;6465542;22;19998;-83
2024/05/05 14:30:14;;;;;;;5.28;3.88;;;;;;;-145.37;100.00;61290.75;6382119;22;19993;-85
2024/05/05 14:32:41;;;;;;;4.30;3.90;;;;;;;-145.37;100.00;61290.75;6466963;22;20027;-84
2024/05/05 14:35:07;;;;;;;6.03;4.40;;;;;;;-145.37;100.00;61290.75;6465863;22;20022;-84
2024/05/05 14:37:34;;;;;;;6.15;4.43;;;;;;;-145.37;100.00;61290.75;6422730;22;20000;-85
2024/05/05 14:40:01;;;;;;;6.45;3.85;;;;;;;-145.37;100.00;61290.75;6466403;22;20005;-87
2024/05/05 14:42:29;;;;;;;4.68;3.85;;;;;;;-145.37;100.00;61290.75;6467592;22;19990;-83
2024/05/05 14:44:55;;;;;;;8.38;3.60;;;;;;;-145.37;100.00;61290.75;6422248;22;20407;-81
2024/05/05 14:47:22;;;;;;;4.45;3.55;;;;;;;-145.37;100.00;61290.75;6465552;22;19994;-83
2024/05/05 14:49:49;;;;;;;3.90;3.15;;;;;;;-145.37;100.00;61290.75;6421930;22;20030;-81
2024/05/05 14:52:15;;;;;;;4.90;3.30;;;;;;;-145.37;100.00;61290.75;6466767;22;20042;-83
2024/05/05 14:54:44;;;;;;;3.83;3.33;;;;;;;-145.37;100.00;61290.75;6465961;22;20064;-83
2024/05/05 14:57:11;;;;;;;4.07;3.08;;;;;;;-145.37;100.00;61290.75;6464079;22;19994;-82
2024/05/05 14:59:38;;;;;;;5.53;3.97;;;;;;;-145.37;100.00;61290.75;6466773;22;20331;-82
2024/05/05 15:02:08;;;;;;;2.97;2.50;;;;;;;-145.37;100.00;61290.75;6468385;22;20040;-84
2024/05/05 15:04:35;;;;;;;3.53;2.88;;;;;;;-145.37;100.00;61290.75;6470110;22;20319;-83
2024/05/05 15:07:02;;;;;;;3.13;2.55;;;;;;;-145.37;100.00;61290.75;6423057;22;20102;-83
2024/05/05 15:09:29;;;;;;;3.20;2.50;;;;;;;-145.37;100.00;61290.75;6466568;22;19990;-85
2024/05/05 15:11:56;;;;;;;2.67;2.17;;;;;;;-145.37;100.00;61290.75;6422845;22;20075;-83
2024/05/05 15:14:22;;;;;;;9.88;5.60;;;;;;;-145.37;100.00;61290.75;6467129;22;20463;-83
2024/05/05 15:16:49;;;;;;;3.80;2.85;;;;;;;-145.37;100.00;61290.75;6422872;22;19990;-84
2024/05/05 15:19:17;;;;;;;6.45;4.60;;;;;;;-145.37;100.00;61290.75;6421875;22;20525;-84
2024/05/05 15:21:43;;;;;;;3.90;2.92;;;;;;;-145.37;100.00;61290.75;6466720;22;20005;-83
2024/05/05 15:24:10;;;;;;;3.63;2.63;;;;;;;-145.37;100.00;61290.75;6423441;22;19990;-84
2024/05/05 15:26:39;;;;;;;3.13;2.20;;;;;;;-145.37;100.00;61290.75;6466769;22;19993;-84
2024/05/05 15:29:07;;;;;;;4.22;2.88;;;;;;;-145.37;100.00;61290.75;6428711;22;20079;-84
2024/05/05 15:31:36;;;;;;;22.52;16.02;;;;;;;-145.37;100.00;61290.75;6467028;22;20302;-84
2024/05/05 15:34:03;;;;;;;7.90;5.28;;;;;;;-145.37;100.00;61290.75;6421949;22;20412;-84
2024/05/05 15:36:29;;;;;;;8.32;5.97;;;;;;;-145.37;100.00;61290.75;6466874;22;19989;-85
2024/05/05 15:38:56;;;;;;;5.28;3.65;;;;;;;-145.37;100.00;61290.75;6422946;22;19994;-85
2024/05/05 15:41:22;;;;;;;5.35;3.42;;;;;;;-145.37;100.00;61290.75;6467167;22;19998;-85
2024/05/05 15:43:49;;;;;;;8.68;4.45;;;;;;;-145.37;100.00;61290.75;6422870;22;19994;-84
2024/05/05 15:46:15;;;;;;;5.63;4.68;;;;;;;-145.37;100.00;61290.75;6422525;22;20009;-84
2024/05/05 15:48:42;;;;;;;4.57;4.05;;;;;;;-145.37;100.00;61290.75;6467616;22;20389;-84
2024/05/05 15:51:13;;;;;;;4.22;3.83;;;;;;;-145.37;100.00;61290.75;6466999;22;19994;-85
2024/05/05 15:53:42;;;;;;;4.00;3.45;;;;;;;-145.37;100.00;61290.75;6466351;22;20305;-83
2024/05/05 15:56:09;;;;;;;6.82;4.00;;;;;;;-145.37;100.00;61290.75;6466337;22;19994;-84
2024/05/05 15:58:37;;;;;;;5.70;4.43;;;;;;;-145.37;100.00;61290.75;6466393;22;19997;-83
2024/05/05 16:01:07;;;;;;;6.25;3.95;;;;;;;-145.37;100.00;61290.75;6422394;22;20410;-84
2024/05/05 16:03:33;;;;;;;6.00;4.57;;;;;;;-145.37;100.00;61290.75;6421888;22;20006;-85
2024/05/05 16:06:00;;;;;;;6.25;4.25;;;;;;;-145.37;100.00;61290.75;6466798;22;19990;-84
2024/05/05 16:08:26;;;;;;;3.55;3.20;;;;;;;-145.37;100.00;61290.75;6422380;22;19994;-85
2024/05/05 16:10:53;;;;;;;5.45;4.32;;;;;;;-145.37;100.00;61290.75;6423109;22;20020;-84
2024/05/05 16:13:21;;;;;;;6.38;4.22;;;;;;;-145.37;100.00;61290.75;6423239;22;20045;-83
2024/05/05 16:15:48;;;;;;;4.00;3.60;;;;;;;-145.37;100.00;61290.75;6467466;22;20002;-84
2024/05/05 16:18:15;;;;;;;4.63;3.60;;;;;;;-145.37;100.00;61290.75;6466226;22;20424;-82
2024/05/05 16:20:42;;;;;;;5.35;3.85;;;;;;;-145.37;100.00;61290.75;6422923;22;19990;-84
2024/05/05 16:23:08;;;;;;;8.43;5.28;;;;;;;-145.37;100.00;61290.75;6423788;22;20344;-84
2024/05/05 16:25:36;;;;;;;5.82;4.60;;;;;;;-145.37;100.00;61290.75;6466675;22;20408;-84
2024/05/05 16:28:03;;;;;;;5.93;4.47;;;;;;;-145.37;100.00;61290.75;6469246;22;20345;-87
2024/05/05 16:30:31;;;;;;;5.97;4.50;;;;;;;-145.37;100.00;61290.75;6382232;22;19998;-86
2024/05/05 16:32:59;;;;;;;4.72;3.85;;;;;;;-145.37;100.00;61290.75;6467676;22;19994;-83
2024/05/05 16:35:26;;;;;;;5.97;5.38;;;;;;;-145.37;100.00;61290.75;6424779;22;20400;-83
2024/05/05 16:37:53;;;;;;;6.03;5.13;;;;;;;-145.37;100.00;61290.75;6469290;22;20308;-83
2024/05/05 16:40:19;;;;;;;7.82;4.75;;;;;;;-145.37;100.00;61290.75;6483191;22;19989;-84
2024/05/05 16:42:46;;;;;;;6.25;4.60;;;;;;;-145.37;100.00;61290.75;6437191;22;20002;-84
2024/05/05 16:45:13;;;;;;;7.20;5.55;;;;;;;-145.37;100.00;61290.75;6487190;22;19994;-83
2024/05/05 16:47:40;;;;;;;8.70;4.88;;;;;;;-145.37;100.00;61290.75;6477282;22;19993;-84
2024/05/05 16:50:06;;;;;;;5.95;5.30;;;;;;;-145.37;100.00;61290.75;6469763;22;20005;-85
2024/05/05 16:52:36;;;;;;;7.03;5.32;;;;;;;-145.37;100.00;61290.75;6426247;22;20006;-84
2024/05/05 16:55:03;;;;;;;5.88;4.97;;;;;;;-145.37;100.00;61290.75;6469310;22;20396;-84
2024/05/05 16:57:30;;;;;;;7.00;4.60;;;;;;;-145.37;100.00;61290.75;6468502;22;20017;-84
2024/05/05 16:59:57;;;;;;;6.65;4.72;;;;;;;-145.37;100.00;61290.75;6467492;22;19990;-83
2024/05/05 17:02:24;;;;;;;5.20;4.50;;;;;;;-145.37;100.00;61290.75;6422666;22;20276;-83
2024/05/05 17:04:51;;;;;;;5.57;5.00;;;;;;;-145.37;100.00;61290.75;6466096;22;20093;-84
2024/05/05 17:07:18;;;;;;;5.72;4.40;;;;;;;-145.37;100.00;61290.75;6422886;22;20081;-83
2024/05/05 17:09:45;;;;;;;4.85;4.20;;;;;;;-145.37;100.00;61290.75;6423822;22;20451;-84
2024/05/05 17:12:11;;;;;;;6.20;4.38;;;;;;;-145.37;100.00;61290.75;6423286;22;19990;-83
2024/05/05 17:14:38;;;;;;;5.90;4.57;;;;;;;-145.37;100.00;61290.75;6467390;22;20435;-83
2024/05/05 17:17:05;;;;;;;5.78;4.65;;;;;;;-145.37;100.00;61290.75;6466516;22;20361;-85
2024/05/05 17:19:31;;;;;;;5.90;5.35;;;;;;;-145.37;100.00;61290.75;6422853;22;20456;-82
2024/05/05 17:21:58;;;;;;;4.90;4.43;;;;;;;-145.37;100.00;61290.75;6423214;22;20097;-84
2024/05/05 17:24:25;;;;;;;5.85;5.25;;;;;;;-145.37;100.00;61290.75;6466990;22;20001;-84
2024/05/05 17:26:52;;;;;;;5.40;4.90;;;;;;;-145.37;100.00;61290.75;6422717;22;20343;-84
2024/05/05 17:29:19;;;;;;;7.05;6.13;;;;;;;-145.37;100.00;61290.75;6466464;22;19993;-83
2024/05/05 17:31:46;;;;;;;5.53;4.32;;;;;;;-145.37;100.00;61290.75;6466910;22;20330;-83
2024/05/05 17:34:13;;;;;;;6.07;5.32;;;;;;;-145.37;100.00;61290.75;6423713;22;20003;-82
2024/05/05 17:36:40;;;;;;;8.30;6.38;;;;;;;-145.37;100.00;61290.75;6464874;22;19994;-83
2024/05/05 17:39:07;;;;;;;6.32;5.50;;;;;;;-145.37;100.00;61290.75;6466114;22;20416;-83
2024/05/05 17:41:34;;;;;;;8.07;6.00;;;;;;;-145.37;100.00;61290.75;6466389;22;20009;-83
2024/05/05 17:44:00;;;;;;;6.85;5.18;;;;;;;-145.37;100.00;61290.75;6423025;22;20046;-86
2024/05/05 17:46:27;;;;;;;9.57;6.97;;;;;;;-145.37;100.00;61290.75;6466759;22;20030;-88
2024/05/05 17:48:54;;;;;;;8.77;5.90;;;;;;;-145.37;100.00;61290.75;6468013;22;19993;-86
2024/05/05 17:51:21;;;;;;;7.45;6.25;;;;;;;-145.37;100.00;61290.75;6423197;22;20078;-88
2024/05/05 17:53:48;;;;;;;6.22;5.63;;;;;;;-145.37;100.00;61290.75;6425750;22;20105;-83
2024/05/05 17:56:15;;;;;;;8.30;6.10;;;;;;;-145.37;100.00;61290.75;6425622;22;20325;-82
2024/05/05 17:58:43;;;;;;;6.05;5.10;;;;;;;-145.37;100.00;61290.75;6383091;22;20603;-83
2024/05/05 18:01:14;;;;;;;8.10;6.43;;;;;;;-145.37;100.00;61290.75;6466973;22;19998;-84
2024/05/05 18:03:43;;;;;;;5.88;4.60;;;;;;;-145.37;100.00;61290.75;6423719;22;19994;-83
2024/05/05 18:06:11;;;;;;;9.02;6.63;;;;;;;-145.37;100.00;61290.75;6469609;22;20323;-84
2024/05/05 18:08:38;;;;;;;6.90;5.63;;;;;;;-145.37;100.00;61290.75;6426002;22;19998;-84
2024/05/05 18:11:05;;;;;;;10.00;6.32;;;;;;;-145.37;100.00;61290.75;6468212;22;20113;-84
2024/05/05 18:13:33;;;;;;;6.97;4.97;;;;;;;-145.37;100.00;61290.75;6421866;22;19994;-87
2024/05/05 18:16:00;;;;;;;8.25;5.47;;;;;;;-145.37;100.00;61290.75;6423370;22;20006;-85
2024/05/05 18:18:27;;;;;;;9.30;6.15;;;;;;;-145.37;100.00;61290.75;6425487;22;20452;-82
2024/05/05 18:20:54;;;;;;;7.63;5.20;;;;;;;-145.37;100.00;61290.75;6425010;22;19990;-83
2024/05/05 18:23:21;;;;;;;8.02;5.88;;;;;;;-145.37;100.00;61290.75;6425389;22;20005;-84
2024/05/05 18:25:48;;;;;;;6.85;6.15;;;;;;;-145.37;100.00;61290.75;6468905;22;20065;-88
2024/05/05 18:28:17;;;;;;;6.82;5.13;;;;;;;-145.37;100.00;61290.75;6425530;22;19990;-82
2024/05/05 18:30:45;;;;;;;5.90;5.30;;;;;;;-145.37;100.00;61290.75;6427467;22;20277;-83
2024/05/05 18:33:12;;;;;;;6.20;5.35;;;;;;;-145.37;100.00;61290.75;6427127;22;19990;-83
2024/05/05 18:35:39;;;;;;;7.90;5.55;;;;;;;-145.37;100.00;61290.75;6472866;22;19994;-82
2024/05/05 18:38:06;;;;;;;9.40;5.72;;;;;;;-145.37;100.00;61290.75;6424340;22;20048;-81
2024/05/05 18:40:32;;;;;;;9.07;5.50;;;;;;;-145.37;100.00;61290.75;6467585;22;20017;-83
2024/05/05 18:42:59;;;;;;;7.18;5.80;;;;;;;-145.37;100.00;61290.75;6468546;22;19993;-82
2024/05/05 18:45:26;;;;;;;7.65;5.70;;;;;;;-145.37;100.00;61290.75;6469414;22;19998;-84
2024/05/05 18:47:53;;;;;;;6.38;5.20;;;;;;;-145.37;100.00;61290.75;6469398;22;20077;-83
2024/05/05 18:50:23;;;;;;;5.55;5.00;;;;;;;-145.37;100.00;61290.75;6427553;22;20052;-84
2024/05/05 18:52:50;;;;;;;6.80;5.53;;;;;;;-145.37;100.00;61290.75;6467896;22;20070;-82
2024/05/05 18:55:17;;;;;;;6.97;5.30;;;;;;;-145.37;100.00;61290.75;6424475;22;20452;-84
2024/05/05 18:57:44;;;;;;;6.40;5.63;;;;;;;-145.37;100.00;61290.75;6468025;22;20068;-82
2024/05/05 19:00:11;;;;;;;8.25;5.70;;;;;;;-145.37;100.00;61290.75;6422997;22;19998;-83
2024/05/05 19:02:38;;;;;;;7.50;6.03;;;;;;;-145.37;100.00;61290.75;6467167;22;20021;-83
2024/05/05 19:05:04;;;;;;;8.77;6.03;;;;;;;-145.37;100.00;61290.75;6422387;22;19994;-84
2024/05/05 19:07:32;;;;;;;8.88;5.65;;;;;;;-145.37;100.00;61290.75;6422912;22;19993;-84
2024/05/05 19:09:59;;;;;;;9.63;5.95;;;;;;;-145.37;100.00;61290.75;6466537;22;20000;-83
2024/05/05 19:12:25;;;;;;;6.38;5.70;;;;;;;-145.37;100.00;61290.75;6465982;22;20529;-83
2024/05/05 19:14:52;;;;;;;9.35;5.78;;;;;;;-145.37;100.00;61290.75;6421943;22;19994;-84
2024/05/05 19:17:21;;;;;;;9.65;6.55;;;;;;;-145.37;100.00;61290.75;6470794;22;20300;-83
2024/05/05 19:19:48;;;;;;;11.02;7.35;;;;;;;-145.37;100.00;61290.75;6474807;22;20010;-83
2024/05/05 19:22:14;;;;;;;8.43;6.88;;;;;;;-145.37;100.00;61290.75;6474354;22;20069;-83
2024/05/05 19:24:41;;;;;;;8.43;6.45;;;;;;;-145.37;100.00;61290.75;6431354;22;20001;-84
2024/05/05 19:27:10;;;;;;;8.65;7.28;;;;;;;-145.37;100.00;61290.75;6475918;22;20002;-82
2024/05/05 19:29:37;;;;;;;9.48;6.15;;;;;;;-145.37;100.00;61290.75;6475290;22;20032;-83
2024/05/05 19:32:05;;;;;;;9.60;7.13;;;;;;;-145.37;100.00;61290.75;6432338;22;19996;-83
2024/05/05 19:34:32;;;;;;;9.35;7.13;;;;;;;-145.37;100.00;61290.75;6475952;22;20000;-83
2024/05/05 19:36:58;;;;;;;7.10;6.22;;;;;;;-145.37;100.00;61290.75;6431850;22;20084;-83
2024/05/05 19:39:25;;;;;;;9.60;6.68;;;;;;;-145.37;100.00;61290.75;6476157;22;20000;-82
2024/05/05 19:41:52;;;;;;;10.00;7.32;;;;;;;-145.37;100.00;61290.75;6476200;22;19994;-84
2024/05/05 19:44:19;;;;;;;8.70;7.80;;;;;;;-145.37;100.00;61290.75;6432000;22;20069;-84
2024/05/05 19:46:46;;;;;;;8.63;7.72;;;;;;;-145.37;100.00;61290.75;6431336;22;20080;-84
2024/05/05 19:49:13;;;;;;;9.13;7.53;;;;;;;-145.37;100.00;61290.75;6475851;22;20002;-84
2024/05/05 19:51:40;;;;;;;10.20;7.93;;;;;;;-145.37;100.00;61290.75;6431658;22;20426;-84
2024/05/05 19:54:08;;;;;;;10.85;8.73;;;;;;;-145.37;100.00;61290.75;6431480;22;20008;-83
2024/05/05 19:56:35;;;;;;;10.80;8.48;;;;;;;-145.37;100.00;61290.75;6432015;22;19994;-84
2024/05/05 19:59:06;;;;;;;10.20;8.25;;;;;;;-145.37;100.00;61290.75;6476256;22;20002;-84
2024/05/05 20:01:33;;;;;;;10.05;8.70;;;;;;;-145.37;100.00;61290.75;6481196;22;19990;-83
2024/05/05 20:04:00;;;;;;;11.45;9.27;;;;;;;-145.37;100.00;61290.75;6432137;22;20335;-83
2024/05/05 20:06:27;;;;;;;10.63;9.35;;;;;;;-145.37;100.00;61290.75;6475590;22;20040;-83
2024/05/05 20:08:55;;;;;;;10.77;9.65;;;;;;;-145.37;100.00;61290.75;6475360;22;19994;-83
2024/05/05 20:11:24;;;;;;;12.13;9.10;;;;;;;-145.37;100.00;61290.75;6475542;22;20013;-84
2024/05/05 20:13:51;;;;;;;10.93;9.40;;;;;;;-145.37;100.00;61290.75;6431371;22;20002;-84
2024/05/05 20:16:20;;;;;;;13.35;9.50;;;;;;;-145.37;100.00;61290.75;6474854;22;19994;-84
2024/05/05 20:18:50;;;;;;;14.15;10.48;;;;;;;-145.37;100.00;61290.75;6475248;22;19990;-84
2024/05/05 20:21:20;;;;;;;11.98;10.45;;;;;;;-145.37;100.00;61290.75;6431106;22;20472;-83
2024/05/05 20:23:46;;;;;;;13.43;10.38;;;;;;;-145.37;100.00;61290.75;6475193;22;20460;-83
2024/05/05 20:26:13;;;;;;;12.13;9.95;;;;;;;-145.37;100.00;61290.75;6474782;22;20398;-83
2024/05/05 20:28:40;;;;;;;13.93;10.02;;;;;;;-145.37;100.00;61290.75;6475126;22;20116;-83
2024/05/05 20:31:07;;;;;;;13.55;9.50;;;;;;;-145.37;100.00;61290.75;6432250;22;20068;-83
2024/05/05 20:33:34;;;;;;;12.75;8.88;;;;;;;-145.37;100.00;61290.75;6476054;22;20005;-83
2024/05/05 20:36:05;;;;;;;10.75;9.13;;;;;;;-145.37;100.00;61290.75;6475465;22;19990;-83
2024/05/05 20:38:32;;;;;;;13.23;9.77;;;;;;;-145.37;100.00;61290.75;6475690;22;20001;-83
2024/05/05 20:40:59;;;;;;;11.38;9.82;;;;;;;-145.37;100.00;61290.75;6476048;22;19990;-83
2024/05/05 20:43:26;;;;;;;11.77;10.13;;;;;;;-145.37;100.00;61290.75;6476297;22;20018;-84
2024/05/05 20:45:53;;;;;;;12.13;10.13;;;;;;;-145.37;100.00;61290.75;6432944;22;19998;-84